createdAt,value
2023-04-03T00:02:24.797Z,64.25
2023-04-03T00:04:51.404Z,64.26
2023-04-03T00:07:17.968Z,64.44
2023-04-03T00:09:44.529Z,64.69
2023-04-03T00:12:11.964Z,64.64
2023-04-03T00:14:38.561Z,64.51
2023-04-03T00:17:05.178Z,64.43
2023-04-03T00:19:31.992Z,65.20
2023-04-03T00:21:58.629Z,64.97
2023-04-03T00:24:25.328Z,64.64
2023-04-03T00:26:52.690Z,64.73
2023-04-03T00:29:19.857Z,65.10
2023-04-03T00:31:46.662Z,64.52
2023-04-03T00:34:13.228Z,64.72
2023-04-03T00:36:39.932Z,64.71
2023-04-03T00:39:06.928Z,65.18
2023-04-03T00:41:33.568Z,64.93
2023-04-03T00:44:00.324Z,65.00
2023-04-03T00:46:26.947Z,65.09
2023-04-03T00:48:53.688Z,65.64
2023-04-03T00:51:27.177Z,65.13
2023-04-03T00:53:59.769Z,65.21
2023-04-03T00:56:28.013Z,65.13
2023-04-03T00:58:54.484Z,65.20
2023-04-03T01:01:24.329Z,65.12
2023-04-03T01:03:51.275Z,65.68
2023-04-03T01:06:20.636Z,65.46
2023-04-03T01:08:50.101Z,65.54
2023-04-03T01:11:16.657Z,65.80
2023-04-03T01:13:44.457Z,65.56
2023-04-03T01:16:11.321Z,65.58
2023-04-03T01:18:39.797Z,65.47
2023-04-03T01:21:24.816Z,65.54
2023-04-03T01:24:01.239Z,65.65
2023-04-03T01:26:29.438Z,66.17
2023-04-03T01:28:56.626Z,66.29
2023-04-03T01:31:28.949Z,66.05
2023-04-03T01:33:56.998Z,66.44
2023-04-03T01:36:31.421Z,64.48
2023-04-03T01:39:00.219Z,63.64
2023-04-03T01:41:27.430Z,63.58
2023-04-03T01:43:59.731Z,64.08
2023-04-03T01:46:26.422Z,64.22
2023-04-03T01:48:53.078Z,64.22
2023-04-03T01:51:19.670Z,64.28
2023-04-03T01:53:46.232Z,64.40
2023-04-03T01:56:13.496Z,64.80
2023-04-03T01:58:40.089Z,64.09
2023-04-03T02:01:07.634Z,64.38
2023-04-03T02:03:34.348Z,64.77
2023-04-03T02:06:01.961Z,64.85
2023-04-03T02:08:28.545Z,63.81
2023-04-03T02:10:55.303Z,63.67
2023-04-03T02:13:21.964Z,64.01
2023-04-03T02:15:48.767Z,64.06
2023-04-03T02:18:17.709Z,64.11
2023-04-03T02:20:44.477Z,64.21
2023-04-03T02:23:11.472Z,64.25
2023-04-03T02:25:38.919Z,64.50
2023-04-03T02:28:06.152Z,65.17
2023-04-03T02:30:32.753Z,64.60
2023-04-03T02:32:59.466Z,64.99
2023-04-03T02:35:27.070Z,64.99
2023-04-03T02:37:56.742Z,64.83
2023-04-03T02:40:23.584Z,64.70
2023-04-03T02:42:50.952Z,64.38
2023-04-03T02:45:18.938Z,64.48
2023-04-03T02:47:45.719Z,64.51
2023-04-03T02:50:12.400Z,64.22
2023-04-03T02:52:39.045Z,64.26
2023-04-03T02:55:06.237Z,64.22
2023-04-03T02:57:33.017Z,64.25
2023-04-03T02:59:59.713Z,64.48
2023-04-03T03:02:26.346Z,64.11
2023-04-03T03:04:53.173Z,64.56
2023-04-03T03:07:19.783Z,64.43
2023-04-03T03:09:46.529Z,64.55
2023-04-03T03:12:13.156Z,64.83
2023-04-03T03:14:39.755Z,64.81
2023-04-03T03:19:33.935Z,65.63
2023-04-03T03:22:00.528Z,65.65
2023-04-03T03:24:27.127Z,65.23
2023-04-03T03:26:53.959Z,64.96
2023-04-03T03:29:20.807Z,64.49
2023-04-03T03:31:47.554Z,64.87
2023-04-03T03:34:14.230Z,64.56
2023-04-03T03:36:40.829Z,64.62
2023-04-03T03:39:07.975Z,65.17
2023-04-03T03:41:34.582Z,64.98
2023-04-03T03:44:01.473Z,64.90
2023-04-03T03:46:31.104Z,65.14
2023-04-03T03:48:57.772Z,65.30
2023-04-03T03:51:24.417Z,65.84
2023-04-03T03:53:51.844Z,66.40
2023-04-03T03:56:19.786Z,66.60
2023-04-03T03:58:46.690Z,66.75
2023-04-03T04:01:17.285Z,66.26
2023-04-03T04:03:47.570Z,65.66
2023-04-03T04:06:18.931Z,65.30
2023-04-03T04:08:45.983Z,66.07
2023-04-03T04:11:14.001Z,66.01
2023-04-03T04:13:41.755Z,64.99
2023-04-03T04:16:10.981Z,64.93
2023-04-03T04:18:39.066Z,64.73
2023-04-03T04:21:05.827Z,64.86
2023-04-03T04:23:32.633Z,65.12
2023-04-03T04:26:00.369Z,65.49
2023-04-03T04:28:30.361Z,65.26
2023-04-03T04:30:58.955Z,65.23
2023-04-03T04:33:28.222Z,65.51
2023-04-03T04:35:56.579Z,65.57
2023-04-03T04:38:23.183Z,64.99
2023-04-03T04:40:52.205Z,64.51
2023-04-03T04:43:19.448Z,63.84
2023-04-03T04:45:49.140Z,63.53
2023-04-03T04:48:19.043Z,63.85
2023-04-03T04:50:46.171Z,63.84
2023-04-03T04:53:12.966Z,63.96
2023-04-03T04:55:39.576Z,63.43
2023-04-03T04:58:06.800Z,63.59
2023-04-03T05:00:35.056Z,64.02
2023-04-03T05:03:02.022Z,64.47
2023-04-03T05:05:28.965Z,65.50
2023-04-03T05:07:55.660Z,65.88
2023-04-03T05:10:22.343Z,66.53
2023-04-03T05:12:48.936Z,67.19
2023-04-03T05:15:15.660Z,67.43
2023-04-03T05:17:42.808Z,67.21
2023-04-03T05:20:12.839Z,66.65
2023-04-03T05:22:40.268Z,66.29
2023-04-03T05:25:09.483Z,66.25
2023-04-03T05:27:37.204Z,66.12
2023-04-03T05:30:04.224Z,65.22
2023-04-03T05:32:32.735Z,65.30
2023-04-03T05:35:17.329Z,65.44
2023-04-03T05:37:46.475Z,65.15
2023-04-03T05:40:15.013Z,64.47
2023-04-03T05:42:45.642Z,64.80
2023-04-03T05:45:13.179Z,64.18
2023-04-03T05:47:39.879Z,64.09
2023-04-03T05:50:07.643Z,63.61
2023-04-03T05:52:36.333Z,63.79
2023-04-03T05:55:03.633Z,63.85
2023-04-03T05:57:33.471Z,63.74
2023-04-03T06:00:00.199Z,64.11
2023-04-03T06:02:27.353Z,64.75
2023-04-03T06:04:54.425Z,65.49
2023-04-03T06:07:23.553Z,65.65
2023-04-03T06:09:52.127Z,65.42
2023-04-03T06:12:18.896Z,65.39
2023-04-03T06:14:46.060Z,65.20
2023-04-03T06:17:14.775Z,65.41
2023-04-03T06:19:41.899Z,65.13
2023-04-03T06:22:08.597Z,65.49
2023-04-03T06:24:35.155Z,65.04
2023-04-03T06:27:01.800Z,64.65
2023-04-03T06:29:28.382Z,64.77
2023-04-03T06:31:55.031Z,64.51
2023-04-03T06:34:21.551Z,64.48
2023-04-03T06:36:48.144Z,63.64
2023-04-03T06:39:15.885Z,63.80
2023-04-03T06:41:42.797Z,62.40
2023-04-03T06:44:12.012Z,61.71
2023-04-03T06:46:39.707Z,61.58
2023-04-03T06:49:08.503Z,60.58
2023-04-03T06:51:35.689Z,60.79
2023-04-03T06:54:03.092Z,59.32
2023-04-03T06:56:30.341Z,57.95
2023-04-03T06:58:58.579Z,56.19
2023-04-03T07:01:27.282Z,56.14
2023-04-03T07:03:54.231Z,54.40
2023-04-03T07:06:20.949Z,54.66
2023-04-03T07:08:49.158Z,53.52
2023-04-03T07:11:16.008Z,52.23
2023-04-03T07:13:42.874Z,52.58
2023-04-03T07:16:10.065Z,52.84
2023-04-03T07:18:37.144Z,52.73
2023-04-03T07:21:04.458Z,52.73
2023-04-03T07:23:31.346Z,52.82
2023-04-03T07:25:57.936Z,52.09
2023-04-03T07:28:24.534Z,52.02
2023-04-03T07:30:53.055Z,50.43
2023-04-03T07:33:20.769Z,50.06
2023-04-03T07:35:47.416Z,49.62
2023-04-03T07:38:14.188Z,49.79
2023-04-03T07:40:41.060Z,48.29
2023-04-03T07:43:07.617Z,46.84
2023-04-03T07:45:36.032Z,46.42
2023-04-03T07:48:03.043Z,45.30
2023-04-03T07:50:31.324Z,44.69
2023-04-03T07:52:58.745Z,44.20
2023-04-03T07:55:25.833Z,42.65
2023-04-03T07:57:52.516Z,43.67
2023-04-03T08:00:20.668Z,41.98
2023-04-03T08:02:52.716Z,44.28
2023-04-03T08:05:20.241Z,43.09
2023-04-03T08:07:47.418Z,44.33
2023-04-03T08:10:14.585Z,46.97
2023-04-03T08:12:41.360Z,47.51
2023-04-03T08:15:09.305Z,47.34
2023-04-03T08:17:36.130Z,47.29
2023-04-03T08:20:03.615Z,48.20
2023-04-03T08:22:30.749Z,48.14
2023-04-03T08:24:59.316Z,47.95
2023-04-03T08:27:28.258Z,46.42
2023-04-03T08:29:55.510Z,45.79
2023-04-03T08:32:22.150Z,44.93
2023-04-03T08:34:48.829Z,43.62
2023-04-03T08:37:17.345Z,44.54
2023-04-03T08:39:44.447Z,45.38
2023-04-03T08:42:34.478Z,45.16
2023-04-03T08:45:01.590Z,46.63
2023-04-03T08:47:29.115Z,47.10
2023-04-03T08:50:00.553Z,48.03
2023-04-03T08:52:50.075Z,47.71
2023-04-03T08:55:22.652Z,46.86
2023-04-03T08:57:50.074Z,46.21
2023-04-03T09:00:17.104Z,44.88
2023-04-03T09:02:47.305Z,44.73
2023-04-03T09:05:17.028Z,44.21
2023-04-03T09:07:50.067Z,45.42
2023-04-03T09:10:20.760Z,44.84
2023-04-03T09:12:51.645Z,44.51
2023-04-03T09:15:37.834Z,44.15
2023-04-03T09:18:08.492Z,43.99
2023-04-03T09:20:35.172Z,43.52
2023-04-03T09:23:02.451Z,41.64
2023-04-03T09:25:34.184Z,43.21
2023-04-03T09:28:01.627Z,42.15
2023-04-03T09:30:28.643Z,41.27
2023-04-03T09:32:58.455Z,41.64
2023-04-03T09:35:32.943Z,41.61
2023-04-03T09:38:12.958Z,41.45
2023-04-03T09:40:40.860Z,41.30
2023-04-03T09:43:21.642Z,40.16
2023-04-03T09:45:48.735Z,41.27
2023-04-03T09:48:16.676Z,40.55
2023-04-03T09:51:00.336Z,41.09
2023-04-03T09:53:27.167Z,40.58
2023-04-03T09:55:53.776Z,41.44
2023-04-03T09:58:36.066Z,40.54
2023-04-03T10:01:22.041Z,40.93
2023-04-03T10:04:03.109Z,41.87
2023-04-03T10:06:32.019Z,40.87
2023-04-03T10:09:05.497Z,41.87
2023-04-03T10:11:32.231Z,41.24
2023-04-03T10:14:00.672Z,40.34
2023-04-03T10:16:40.315Z,40.41
2023-04-03T10:19:27.166Z,39.49
2023-04-03T10:21:59.860Z,39.06
2023-04-03T10:24:33.153Z,38.67
2023-04-03T10:27:04.796Z,37.58
2023-04-03T10:29:50.242Z,37.91
2023-04-03T10:32:23.778Z,37.51
2023-04-03T10:35:04.249Z,38.42
2023-04-03T10:37:37.821Z,39.87
2023-04-03T10:40:04.552Z,41.06
2023-04-03T10:42:42.276Z,41.40
2023-04-03T10:45:30.774Z,39.54
2023-04-03T10:48:06.377Z,39.66
2023-04-03T10:50:44.417Z,37.94
2023-04-03T10:53:13.986Z,37.51
2023-04-03T10:55:46.838Z,37.81
2023-04-03T10:58:20.115Z,35.91
2023-04-03T11:00:48.672Z,36.47
2023-04-03T11:03:38.931Z,37.60
2023-04-03T11:06:09.373Z,39.42
2023-04-03T11:08:40.497Z,41.20
2023-04-03T11:11:09.456Z,40.54
2023-04-03T11:13:44.947Z,41.59
2023-04-03T11:16:16.551Z,42.95
2023-04-03T11:18:46.123Z,40.88
2023-04-03T11:21:21.174Z,40.32
2023-04-03T11:23:49.892Z,39.68
2023-04-03T11:26:22.510Z,38.52
2023-04-03T11:28:54.106Z,37.72
2023-04-03T11:31:39.668Z,36.62
2023-04-03T11:34:12.417Z,38.24
2023-04-03T11:36:45.944Z,38.00
2023-04-03T11:39:39.611Z,38.39
2023-04-03T11:42:15.565Z,37.24
2023-04-03T11:44:42.555Z,38.73
2023-04-03T11:47:10.666Z,38.84
2023-04-03T11:49:54.341Z,38.80
2023-04-03T11:52:41.528Z,38.68
2023-04-03T11:55:12.930Z,37.65
2023-04-03T11:57:47.378Z,37.20
2023-04-03T12:00:32.696Z,36.88
2023-04-03T12:02:59.445Z,37.80
2023-04-03T12:05:28.475Z,37.94
2023-04-03T12:08:24.336Z,37.70
2023-04-03T12:11:17.727Z,38.34
2023-04-03T12:13:53.407Z,38.60
2023-04-03T12:16:22.415Z,38.68
2023-04-03T12:18:55.331Z,39.38
2023-04-03T12:21:22.632Z,38.24
2023-04-03T12:24:02.508Z,38.27
2023-04-03T12:26:47.574Z,38.52
2023-04-03T12:29:24.766Z,37.62
2023-04-03T12:32:10.142Z,38.44
2023-04-03T12:34:37.377Z,38.57
2023-04-03T12:37:08.529Z,39.15
2023-04-03T12:39:43.053Z,38.68
2023-04-03T12:42:12.821Z,38.13
2023-04-03T12:44:44.778Z,38.06
2023-04-03T12:47:34.524Z,38.28
2023-04-03T12:50:02.813Z,38.02
2023-04-03T12:52:43.420Z,37.78
2023-04-03T12:55:21.331Z,38.46
2023-04-03T12:57:48.138Z,37.69
2023-04-03T13:00:23.054Z,37.59
2023-04-03T13:02:50.222Z,38.33
2023-04-03T13:05:19.577Z,38.76
2023-04-03T13:07:49.596Z,38.65
2023-04-03T13:10:17.652Z,38.37
2023-04-03T13:12:58.057Z,38.20
2023-04-03T13:15:26.705Z,38.07
2023-04-03T13:17:54.124Z,37.57
2023-04-03T13:20:20.678Z,37.73
2023-04-03T13:22:50.539Z,38.68
2023-04-03T13:25:17.956Z,39.21
2023-04-03T13:27:45.235Z,38.33
2023-04-03T13:30:33.494Z,36.75
2023-04-03T13:33:01.478Z,37.19
2023-04-03T13:35:31.400Z,37.92
2023-04-03T13:37:59.078Z,37.83
2023-04-03T13:40:30.083Z,37.78
2023-04-03T13:43:03.880Z,37.01
2023-04-03T13:45:30.982Z,36.30
2023-04-03T13:48:23.143Z,36.66
2023-04-03T13:50:53.736Z,37.12
2023-04-03T13:53:20.516Z,36.21
2023-04-03T13:55:57.380Z,36.63
2023-04-03T13:58:25.423Z,36.58
2023-04-03T14:01:12.054Z,36.62
2023-04-03T14:03:38.605Z,37.21
2023-04-03T14:06:11.141Z,36.96
2023-04-03T14:08:43.012Z,36.72
2023-04-03T14:11:14.202Z,37.03
2023-04-03T14:13:41.061Z,37.10
2023-04-03T14:16:15.572Z,37.43
2023-04-03T14:18:43.853Z,38.52
2023-04-03T14:21:12.639Z,38.81
2023-04-03T14:23:39.761Z,38.76
2023-04-03T14:26:11.779Z,38.15
2023-04-03T14:28:38.397Z,37.86
2023-04-03T14:31:05.012Z,37.01
2023-04-03T14:33:35.750Z,37.96
2023-04-03T14:36:03.596Z,37.98
2023-04-03T14:38:31.659Z,39.18
2023-04-03T14:41:09.771Z,37.86
2023-04-03T14:43:40.672Z,37.45
2023-04-03T14:46:12.201Z,37.28
2023-04-03T14:48:38.840Z,36.66
2023-04-03T14:51:06.190Z,36.38
2023-04-03T14:53:38.940Z,36.40
2023-04-03T14:56:11.214Z,36.97
2023-04-03T14:58:38.138Z,36.34
2023-04-03T15:01:04.678Z,36.64
2023-04-03T15:03:31.427Z,38.18
2023-04-03T15:05:59.737Z,38.31
2023-04-03T15:08:27.603Z,37.09
2023-04-03T15:10:54.267Z,36.94
2023-04-03T15:13:21.468Z,37.19
2023-04-03T15:15:48.260Z,36.75
2023-04-03T15:18:18.050Z,36.94
2023-04-03T15:20:45.023Z,37.37
2023-04-03T15:23:13.198Z,37.61
2023-04-03T15:25:40.583Z,37.14
2023-04-03T15:28:09.570Z,36.83
2023-04-03T15:30:38.018Z,37.75
2023-04-03T15:33:04.857Z,38.84
2023-04-03T15:35:31.453Z,38.39
2023-04-03T15:37:58.262Z,37.73
2023-04-03T15:40:24.844Z,36.75
2023-04-03T15:42:53.187Z,37.24
2023-04-03T15:45:22.098Z,37.51
2023-04-03T15:47:49.006Z,37.33
2023-04-03T15:50:15.909Z,37.68
2023-04-03T15:52:42.487Z,37.83
2023-04-03T15:55:09.160Z,36.83
2023-04-03T16:00:08.034Z,37.12
2023-04-03T16:02:35.585Z,37.23
2023-04-03T16:05:02.252Z,37.95
2023-04-03T16:07:28.893Z,38.60
2023-04-03T16:13:36.175Z,39.27
2023-04-03T16:16:02.970Z,38.79
2023-04-03T16:18:29.922Z,38.98
2023-04-03T16:20:56.467Z,38.28
2023-04-03T16:23:23.106Z,38.31
2023-04-03T16:25:50.733Z,38.59
2023-04-03T16:28:18.542Z,38.42
2023-04-03T16:30:46.446Z,38.72
2023-04-03T16:33:13.541Z,38.97
2023-04-03T16:35:40.482Z,38.67
2023-04-03T16:38:07.349Z,38.15
2023-04-03T16:40:34.806Z,38.34
2023-04-03T16:43:01.993Z,38.17
2023-04-03T16:45:28.581Z,38.13
2023-04-03T16:47:55.161Z,38.32
2023-04-03T16:50:22.060Z,38.94
2023-04-03T16:52:48.614Z,38.60
2023-04-03T16:55:15.163Z,38.46
2023-04-03T16:57:41.680Z,38.47
2023-04-03T17:00:09.245Z,38.57
2023-04-03T17:02:35.780Z,38.71
2023-04-03T17:05:02.359Z,38.68
2023-04-03T17:07:28.914Z,39.17
2023-04-03T17:09:55.384Z,38.71
2023-04-03T17:12:22.438Z,39.40
2023-04-03T17:14:48.969Z,39.69
2023-04-03T17:17:15.925Z,39.67
2023-04-03T17:19:43.292Z,39.81
2023-04-03T17:22:10.563Z,39.54
2023-04-03T17:24:37.146Z,39.69
2023-04-03T17:27:03.997Z,39.20
2023-04-03T17:29:30.975Z,39.45
2023-04-03T17:31:59.955Z,39.74
2023-04-03T17:34:27.553Z,40.03
2023-04-03T17:36:54.266Z,39.75
2023-04-03T17:39:20.858Z,40.35
2023-04-03T17:41:49.244Z,40.42
2023-04-03T17:44:15.906Z,40.42
2023-04-03T17:46:42.455Z,40.63
2023-04-03T17:49:10.751Z,40.74
2023-04-03T17:51:37.303Z,41.07
2023-04-03T17:54:03.906Z,40.63
2023-04-03T17:56:30.754Z,40.79
2023-04-03T17:58:58.495Z,41.16
2023-04-03T18:01:26.953Z,40.95
2023-04-03T18:03:54.936Z,41.78
2023-04-03T18:06:23.289Z,41.57
2023-04-03T18:08:51.214Z,41.87
2023-04-03T18:11:18.808Z,41.03
2023-04-03T18:13:46.220Z,41.35
2023-04-03T18:16:13.317Z,41.49
2023-04-03T18:18:39.861Z,41.39
2023-04-03T18:21:08.404Z,41.66
2023-04-03T18:23:36.874Z,41.65
2023-04-03T18:26:03.477Z,42.10
2023-04-03T18:28:32.105Z,42.53
2023-04-03T18:34:46.377Z,42.36
2023-04-03T18:37:12.994Z,42.37
2023-04-03T18:39:39.464Z,42.44
2023-04-03T18:42:16.702Z,43.27
2023-04-03T18:44:44.359Z,43.20
2023-04-03T18:47:11.670Z,43.27
2023-04-03T18:49:39.472Z,43.49
2023-04-03T18:52:06.162Z,43.71
2023-04-03T18:54:32.823Z,43.99
2023-04-03T18:56:59.320Z,43.62
2023-04-03T18:59:25.899Z,43.83
2023-04-03T19:01:52.445Z,43.46
2023-04-03T19:04:18.939Z,43.49
2023-04-03T19:06:45.645Z,43.37
2023-04-03T19:09:12.330Z,43.63
2023-04-03T19:11:38.916Z,43.17
2023-04-03T19:14:15.773Z,43.66
2023-04-03T19:16:43.907Z,43.91
2023-04-03T19:19:10.599Z,43.69
2023-04-03T19:21:41.014Z,43.27
2023-04-03T19:24:09.164Z,43.07
2023-04-03T19:26:35.781Z,43.66
2023-04-03T19:29:02.446Z,43.78
2023-04-03T19:34:00.995Z,44.01
2023-04-03T19:36:27.680Z,44.30
2023-04-03T19:38:54.199Z,44.41
2023-04-03T19:41:22.892Z,45.05
2023-04-03T19:43:51.618Z,44.86
2023-04-03T19:46:21.418Z,44.62
2023-04-03T19:48:47.979Z,44.76
2023-04-03T19:51:14.666Z,45.09
2023-04-03T19:53:41.263Z,44.86
2023-04-03T19:56:07.866Z,44.80
2023-04-03T19:58:34.422Z,44.75
2023-04-03T20:01:00.910Z,44.75
2023-04-03T20:03:27.463Z,44.51
2023-04-03T20:05:54.407Z,44.55
2023-04-03T20:08:21.117Z,44.57
2023-04-03T20:10:47.775Z,44.76
2023-04-03T20:13:15.287Z,44.59
2023-04-03T20:15:42.839Z,45.17
2023-04-03T20:18:18.256Z,45.15
2023-04-03T20:20:45.456Z,45.12
2023-04-03T20:23:13.214Z,45.65
2023-04-03T20:25:50.574Z,45.27
2023-04-03T20:28:21.497Z,45.07
2023-04-03T20:30:51.265Z,44.46
2023-04-03T20:33:18.845Z,44.67
2023-04-03T20:35:46.965Z,45.57
2023-04-03T20:38:13.602Z,45.07
2023-04-03T20:40:40.498Z,44.54
2023-04-03T20:43:07.832Z,44.78
2023-04-03T20:45:34.869Z,44.81
2023-04-03T20:48:03.523Z,44.71
2023-04-03T20:50:30.702Z,44.49
2023-04-03T20:52:57.774Z,44.66
2023-04-03T20:55:24.572Z,43.99
2023-04-03T20:57:54.468Z,44.12
2023-04-03T21:00:21.568Z,44.06
2023-04-03T21:02:48.141Z,44.22
2023-04-03T21:05:15.818Z,44.75
2023-04-03T21:08:01.855Z,45.12
2023-04-03T21:10:47.573Z,44.99
2023-04-03T21:13:32.571Z,44.87
2023-04-03T21:16:02.897Z,45.00
2023-04-03T21:18:42.089Z,44.83
2023-04-03T21:21:17.034Z,44.61
2023-04-03T21:23:45.265Z,44.98
2023-04-03T21:26:11.772Z,44.70
2023-04-03T21:28:38.266Z,44.95
2023-04-03T21:31:04.802Z,44.59
2023-04-03T21:33:31.611Z,44.83
2023-04-03T21:35:59.760Z,45.36
2023-04-03T21:38:27.320Z,45.09
2023-04-03T21:40:57.977Z,45.88
2023-04-03T21:43:25.058Z,45.65
2023-04-03T21:45:55.942Z,46.00
2023-04-03T21:48:23.294Z,46.08
2023-04-03T21:50:52.549Z,46.52
2023-04-03T21:53:22.530Z,46.66
2023-04-03T21:55:52.757Z,46.63
2023-04-03T21:58:20.074Z,46.58
2023-04-03T22:00:46.740Z,46.73
2023-04-03T22:03:18.653Z,46.89
2023-04-03T22:05:45.443Z,47.13
2023-04-03T22:08:12.040Z,47.01
2023-04-03T22:10:41.119Z,48.07
2023-04-03T22:13:07.880Z,47.92
2023-04-03T22:15:43.636Z,47.44
2023-04-03T22:18:10.931Z,47.80
2023-04-03T22:20:37.516Z,47.43
2023-04-03T22:23:06.184Z,47.50
2023-04-03T22:25:32.955Z,47.25
2023-04-03T22:27:59.450Z,47.53
2023-04-03T22:30:26.044Z,47.10
2023-04-03T22:32:52.605Z,47.50
2023-04-03T22:35:19.165Z,47.20
2023-04-03T22:37:46.020Z,47.81
2023-04-03T22:40:13.619Z,47.50
2023-04-03T22:42:40.079Z,47.79
2023-04-03T22:45:06.875Z,47.79
2023-04-03T22:47:33.407Z,48.05
2023-04-03T22:49:59.891Z,47.61
2023-04-03T22:52:26.372Z,48.33
2023-04-03T22:54:52.883Z,47.52
2023-04-03T22:57:19.387Z,47.30
2023-04-03T22:59:46.065Z,47.92
2023-04-03T23:02:12.835Z,47.75
2023-04-03T23:04:39.425Z,47.87
2023-04-03T23:07:05.948Z,47.59
2023-04-03T23:09:32.816Z,47.91
2023-04-03T23:11:59.333Z,48.29
2023-04-03T23:14:26.076Z,48.35
2023-04-03T23:16:52.752Z,48.14
2023-04-03T23:19:19.302Z,48.04
2023-04-03T23:21:46.678Z,48.40
2023-04-03T23:24:13.373Z,48.66
2023-04-03T23:26:39.891Z,48.47
2023-04-03T23:29:06.533Z,48.74
2023-04-03T23:31:33.058Z,48.71
2023-04-03T23:33:59.530Z,48.69
2023-04-03T23:36:26.020Z,49.00
2023-04-03T23:38:55.972Z,48.70
2023-04-03T23:41:22.649Z,49.16
2023-04-03T23:43:49.360Z,48.95
2023-04-03T23:46:15.945Z,49.42
2023-04-03T23:48:42.521Z,48.95
2023-04-03T23:51:09.011Z,49.52
2023-04-03T23:53:35.466Z,49.29
2023-04-03T23:56:02.103Z,49.73
2023-04-03T23:58:28.562Z,49.84
